sensor_id;sensor_type;location;lat;lon;timestamp;pressure;altitude;pressure_sealevel;temperature;humidity
52343;BME280;38277;51.972;4.624;2023-04-10T00:03:59;102200.0;;;11.0;61.0
52343;BME280;38277;51.972;4.624;2023-04-10T00:08:34;102200.0;;;11.0;61.5
52343;BME280;38277;51.972;4.624;2023-04-10T00:13:13;102200.0;;;11.0;61.5
52343;BME280;38277;51.972;4.624;2023-04-10T00:22:04;102190.0;;;11.0;61.5
52343;BME280;38277;51.972;4.624;2023-04-10T00:26:25;102190.0;;;11.0;62.0
52343;BME280;38277;51.972;4.624;2023-04-10T00:31:16;102180.0;;;10.9;62.0
52343;BME280;38277;51.972;4.624;2023-04-10T00:35:48;102180.0;;;10.9;62.0
52343;BME280;38277;51.972;4.624;2023-04-10T00:40:11;102180.0;;;10.9;62.0
52343;BME280;38277;51.972;4.624;2023-04-10T00:44:28;102170.0;;;10.9;62.0
52343;BME280;38277;51.972;4.624;2023-04-10T00:48:58;102160.0;;;10.8;62.0
52343;BME280;38277;51.972;4.624;2023-04-10T00:58:06;102150.0;;;10.8;62.5
52343;BME280;38277;51.972;4.624;2023-04-10T01:02:49;102150.0;;;10.7;62.5
52343;BME280;38277;51.972;4.624;2023-04-10T01:07:31;102140.0;;;10.7;63.0
52343;BME280;38277;51.972;4.624;2023-04-10T01:12:07;102130.0;;;10.6;63.0
52343;BME280;38277;51.972;4.624;2023-04-10T01:16:23;102130.0;;;10.6;63.5
52343;BME280;38277;51.972;4.624;2023-04-10T01:20:33;102120.0;;;10.5;63.5
52343;BME280;38277;51.972;4.624;2023-04-10T01:25:55;102110.0;;;10.5;64.0
52343;BME280;38277;51.972;4.624;2023-04-10T01:34:08;102110.0;;;10.4;64.0
52343;BME280;38277;51.972;4.624;2023-04-10T01:38:39;102110.0;;;10.4;64.5
52343;BME280;38277;51.972;4.624;2023-04-10T01:43:12;102100.0;;;10.4;64.5
52343;BME280;38277;51.972;4.624;2023-04-10T01:47:28;102100.0;;;10.4;64.5
52343;BME280;38277;51.972;4.624;2023-04-10T01:52:05;102090.0;;;10.4;64.5
52343;BME280;38277;51.972;4.624;2023-04-10T01:56:31;102080.0;;;10.4;64.5
52343;BME280;38277;51.972;4.624;2023-04-10T02:01:04;102080.0;;;10.4;64.5
52343;BME280;38277;51.972;4.624;2023-04-10T02:10:23;102080.0;;;10.4;65.0
52343;BME280;38277;51.972;4.624;2023-04-10T02:14:35;102090.0;;;10.4;65.0
52343;BME280;38277;51.972;4.624;2023-04-10T02:19:24;102090.0;;;10.4;65.0
52343;BME280;38277;51.972;4.624;2023-04-10T02:23:45;102080.0;;;10.4;65.0
52343;BME280;38277;51.972;4.624;2023-04-10T02:28:21;102080.0;;;10.4;65.0
52343;BME280;38277;51.972;4.624;2023-04-10T02:32:36;102080.0;;;10.4;65.5
52343;BME280;38277;51.972;4.624;2023-04-10T02:37:11;102090.0;;;10.3;65.5
52343;BME280;38277;51.972;4.624;2023-04-10T02:46:09;102090.0;;;10.3;65.5
52343;BME280;38277;51.972;4.624;2023-04-10T02:50:34;102100.0;;;10.3;65.5
52343;BME280;38277;51.972;4.624;2023-04-10T02:55:13;102090.0;;;10.3;65.5
52343;BME280;38277;51.972;4.624;2023-04-10T02:59:42;102100.0;;;10.3;65.5
52343;BME280;38277;51.972;4.624;2023-04-10T03:04:01;102090.0;;;10.3;65.5
52343;BME280;38277;51.972;4.624;2023-04-10T03:08:53;102090.0;;;10.3;65.5
52343;BME280;38277;51.972;4.624;2023-04-10T03:13:11;102080.0;;;10.3;65.5
52343;BME280;38277;51.972;4.624;2023-04-10T03:22:17;102080.0;;;10.3;65.5
52343;BME280;38277;51.972;4.624;2023-04-10T03:26:26;102070.0;;;10.3;65.0
52343;BME280;38277;51.972;4.624;2023-04-10T03:31:22;102070.0;;;10.4;64.5
52343;BME280;38277;51.972;4.624;2023-04-10T03:35:54;102060.0;;;10.4;64.5
52343;BME280;38277;51.972;4.624;2023-04-10T03:39:55;102060.0;;;10.4;64.0
52343;BME280;38277;51.972;4.624;2023-04-10T03:44:45;102040.0;;;10.5;64.0
52343;BME280;38277;51.972;4.624;2023-04-10T03:49:07;102030.0;;;10.5;63.5
52343;BME280;38277;51.972;4.624;2023-04-10T03:58:16;102020.0;;;10.6;63.0
52343;BME280;38277;51.972;4.624;2023-04-10T04:02:43;102020.0;;;10.6;62.5
52343;BME280;38277;51.972;4.624;2023-04-10T04:06:59;102020.0;;;10.7;62.0
52343;BME280;38277;51.972;4.624;2023-04-10T04:11:48;102020.0;;;10.7;62.0
52343;BME280;38277;51.972;4.624;2023-04-10T04:16:15;102010.0;;;10.8;61.5
52343;BME280;38277;51.972;4.624;2023-04-10T04:20:26;102010.0;;;10.8;61.0
52343;BME280;38277;51.972;4.624;2023-04-10T04:25:18;102000.0;;;10.8;61.0
52343;BME280;38277;51.972;4.624;2023-04-10T04:34:08;102000.0;;;10.9;60.5
52343;BME280;38277;51.972;4.624;2023-04-10T04:38:28;101990.0;;;10.9;60.0
52343;BME280;38277;51.972;4.624;2023-04-10T04:43:12;101980.0;;;10.9;60.0
52343;BME280;38277;51.972;4.624;2023-04-10T04:47:27;101980.0;;;11.0;59.5
52343;BME280;38277;51.972;4.624;2023-04-10T04:52:09;101970.0;;;11.0;59.5
52343;BME280;38277;51.972;4.624;2023-04-10T05:01:19;101970.0;;;11.1;59.0
52343;BME280;38277;51.972;4.624;2023-04-10T05:09:58;101970.0;;;11.1;59.0
52343;BME280;38277;51.972;4.624;2023-04-10T05:14:37;101960.0;;;11.1;59.5
52343;BME280;38277;51.972;4.624;2023-04-10T05:18:58;101960.0;;;11.0;59.5
52343;BME280;38277;51.972;4.624;2023-04-10T05:23:26;101980.0;;;11.1;59.5
52343;BME280;38277;51.972;4.624;2023-04-10T05:28:14;101980.0;;;11.1;60.0
52343;BME280;38277;51.972;4.624;2023-04-10T05:32:46;101980.0;;;11.1;60.0
52343;BME280;38277;51.972;4.624;2023-04-10T05:37:19;101980.0;;;11.1;59.5
52343;BME280;38277;51.972;4.624;2023-04-10T05:46:00;101970.0;;;11.1;59.5
52343;BME280;38277;51.972;4.624;2023-04-10T05:50:42;101970.0;;;11.1;59.5
52343;BME280;38277;51.972;4.624;2023-04-10T05:55:20;101960.0;;;11.1;59.5
52343;BME280;38277;51.972;4.624;2023-04-10T05:59:25;101950.0;;;11.1;59.5
52343;BME280;38277;51.972;4.624;2023-04-10T06:04:08;101950.0;;;11.2;59.5
52343;BME280;38277;51.972;4.624;2023-04-10T06:08:37;101950.0;;;11.2;59.5
52343;BME280;38277;51.972;4.624;2023-04-10T06:13:13;101940.0;;;11.2;59.5
52343;BME280;38277;51.972;4.624;2023-04-10T06:22:12;101940.0;;;11.3;59.5
52343;BME280;38277;51.972;4.624;2023-04-10T06:26:40;101920.0;;;11.3;60.0
52343;BME280;38277;51.972;4.624;2023-04-10T06:31:08;101910.0;;;11.3;60.0
52343;BME280;38277;51.972;4.624;2023-04-10T06:35:29;101900.0;;;11.4;60.0
52343;BME280;38277;51.972;4.624;2023-04-10T06:40:23;101910.0;;;11.5;60.0
52343;BME280;38277;51.972;4.624;2023-04-10T06:44:34;101890.0;;;11.5;60.0
52343;BME280;38277;51.972;4.624;2023-04-10T06:49:16;101880.0;;;11.6;60.0
52343;BME280;38277;51.972;4.624;2023-04-10T06:53:52;101880.0;;;11.7;59.5
52343;BME280;38277;51.972;4.624;2023-04-10T06:58:23;101860.0;;;11.8;59.0
52343;BME280;38277;51.972;4.624;2023-04-10T07:02:36;101870.0;;;11.9;58.5
52343;BME280;38277;51.972;4.624;2023-04-10T07:07:09;101860.0;;;12.1;58.5
52343;BME280;38277;51.972;4.624;2023-04-10T07:11:27;101860.0;;;12.2;57.5
52343;BME280;38277;51.972;4.624;2023-04-10T07:20:42;101850.0;;;12.4;56.5
52343;BME280;38277;51.972;4.624;2023-04-10T07:24:58;101850.0;;;12.5;55.5
52343;BME280;38277;51.972;4.624;2023-04-10T07:29:43;101850.0;;;12.5;55.5
52343;BME280;38277;51.972;4.624;2023-04-10T07:34:11;101830.0;;;12.6;54.5
52343;BME280;38277;51.972;4.624;2023-04-10T07:38:34;101830.0;;;12.7;54.0
52343;BME280;38277;51.972;4.624;2023-04-10T07:43:02;101830.0;;;12.8;54.0
52343;BME280;38277;51.972;4.624;2023-04-10T07:47:34;101820.0;;;13.0;53.0
52343;BME280;38277;51.972;4.624;2023-04-10T07:52:21;101810.0;;;13.1;52.5
52343;BME280;38277;51.972;4.624;2023-04-10T07:56:32;101800.0;;;13.2;52.5
52343;BME280;38277;51.972;4.624;2023-04-10T08:01:06;101800.0;;;13.3;52.0
52343;BME280;38277;51.972;4.624;2023-04-10T08:05:44;101780.0;;;13.3;52.0
52343;BME280;38277;51.972;4.624;2023-04-10T08:10:15;101770.0;;;13.3;52.0
52343;BME280;38277;51.972;4.624;2023-04-10T08:14:27;101770.0;;;13.4;52.5
52343;BME280;38277;51.972;4.624;2023-04-10T08:19:01;101760.0;;;13.4;52.5
52343;BME280;38277;51.972;4.624;2023-04-10T08:23:53;101760.0;;;13.5;52.0
52343;BME280;38277;51.972;4.624;2023-04-10T08:28:12;101750.0;;;13.6;52.0
52343;BME280;38277;51.972;4.624;2023-04-10T08:32:50;101750.0;;;13.7;52.0
52343;BME280;38277;51.972;4.624;2023-04-10T08:37:00;101750.0;;;13.9;51.5
52343;BME280;38277;51.972;4.624;2023-04-10T08:41:41;101750.0;;;14.0;51.0
52343;BME280;38277;51.972;4.624;2023-04-10T08:46:24;101740.0;;;14.1;50.5
52343;BME280;38277;51.972;4.624;2023-04-10T08:50:45;101720.0;;;14.2;50.5
52343;BME280;38277;51.972;4.624;2023-04-10T08:55:18;101710.0;;;14.4;50.0
52343;BME280;38277;51.972;4.624;2023-04-10T09:01:30;101710.0;;;14.5;50.0
52343;BME280;38277;51.972;4.624;2023-04-10T09:04:24;101710.0;;;14.6;50.0
52343;BME280;38277;51.972;4.624;2023-04-10T09:08:35;101700.0;;;14.6;50.0
52343;BME280;38277;51.972;4.624;2023-04-10T09:13:34;101690.0;;;14.7;49.5
52343;BME280;38277;51.972;4.624;2023-04-10T09:17:59;101690.0;;;14.8;49.5
52343;BME280;38277;51.972;4.624;2023-04-10T09:22:11;101690.0;;;15.0;49.5
52343;BME280;38277;51.972;4.624;2023-04-10T09:26:42;101680.0;;;15.0;49.5
52343;BME280;38277;51.972;4.624;2023-04-10T09:31:27;101670.0;;;15.1;49.5
52343;BME280;38277;51.972;4.624;2023-04-10T09:35:36;101660.0;;;15.1;49.0
52343;BME280;38277;51.972;4.624;2023-04-10T09:40:21;101660.0;;;15.2;49.0
52343;BME280;38277;51.972;4.624;2023-04-10T09:44:45;101640.0;;;15.2;49.0
52343;BME280;38277;51.972;4.624;2023-04-10T09:48:56;101640.0;;;15.3;49.0
52343;BME280;38277;51.972;4.624;2023-04-10T09:53:47;101640.0;;;15.4;49.0
52343;BME280;38277;51.972;4.624;2023-04-10T09:58:14;101630.0;;;15.6;48.5
52343;BME280;38277;51.972;4.624;2023-04-10T10:02:36;101620.0;;;15.7;48.0
52343;BME280;38277;51.972;4.624;2023-04-10T10:07:04;101620.0;;;15.8;48.0
52343;BME280;38277;51.972;4.624;2023-04-10T10:11:44;101610.0;;;15.9;47.5
52343;BME280;38277;51.972;4.624;2023-04-10T10:16:20;101610.0;;;16.1;47.5
52343;BME280;38277;51.972;4.624;2023-04-10T10:20:30;101590.0;;;16.3;47.5
52343;BME280;38277;51.972;4.624;2023-04-10T10:25:14;101600.0;;;16.5;47.0
52343;BME280;38277;51.972;4.624;2023-04-10T10:29:45;101590.0;;;17.0;46.5
52343;BME280;38277;51.972;4.624;2023-04-10T10:34:25;101590.0;;;17.5;45.0
52343;BME280;38277;51.972;4.624;2023-04-10T10:38:26;101560.0;;;17.7;44.0
52343;BME280;38277;51.972;4.624;2023-04-10T10:43:34;101540.0;;;18.1;43.5
52343;BME280;38277;51.972;4.624;2023-04-10T10:47:40;101530.0;;;18.5;42.5
52343;BME280;38277;51.972;4.624;2023-04-10T10:56:35;101510.0;;;19.0;41.0
52343;BME280;38277;51.972;4.624;2023-04-10T11:01:24;101490.0;;;19.2;41.0
52343;BME280;38277;51.972;4.624;2023-04-10T11:05:59;101490.0;;;19.4;40.5
52343;BME280;38277;51.972;4.624;2023-04-10T11:10:02;101480.0;;;19.5;40.5
52343;BME280;38277;51.972;4.624;2023-04-10T11:14:55;101470.0;;;19.6;39.5
52343;BME280;38277;51.972;4.624;2023-04-10T11:19:23;101460.0;;;19.5;40.0
52343;BME280;38277;51.972;4.624;2023-04-10T11:24:03;101450.0;;;19.5;40.0
52343;BME280;38277;51.972;4.624;2023-04-10T11:32:43;101430.0;;;19.2;40.0
52343;BME280;38277;51.972;4.624;2023-04-10T11:37:07;101440.0;;;19.1;40.5
52343;BME280;38277;51.972;4.624;2023-04-10T11:50:29;101410.0;;;18.3;42.5
52343;BME280;38277;51.972;4.624;2023-04-10T11:55:10;101400.0;;;18.1;42.5
52343;BME280;38277;51.972;4.624;2023-04-10T11:59:26;101400.0;;;17.8;44.0
52343;BME280;38277;51.972;4.624;2023-04-10T12:04:00;101380.0;;;17.7;44.5
52343;BME280;38277;51.972;4.624;2023-04-10T12:08:29;101380.0;;;17.6;45.0
52343;BME280;38277;51.972;4.624;2023-04-10T12:13:24;101380.0;;;17.5;45.5
52343;BME280;38277;51.972;4.624;2023-04-10T12:18:21;101370.0;;;17.4;45.5
52343;BME280;38277;51.972;4.624;2023-04-10T12:23:17;101370.0;;;17.2;46.0
52343;BME280;38277;51.972;4.624;2023-04-10T12:30:58;101370.0;;;17.0;48.5
52343;BME280;38277;51.972;4.624;2023-04-10T12:35:54;101370.0;;;16.8;50.0
52343;BME280;38277;51.972;4.624;2023-04-10T12:40:56;101360.0;;;16.7;50.5
52343;BME280;38277;51.972;4.624;2023-04-10T12:47:27;101350.0;;;16.6;51.5
52343;BME280;38277;51.972;4.624;2023-04-10T12:50:48;101350.0;;;16.5;53.5
52343;BME280;38277;51.972;4.624;2023-04-10T12:58:14;101330.0;;;16.1;56.5
52343;BME280;38277;51.972;4.624;2023-04-10T13:02:54;101320.0;;;16.0;57.5
52343;BME280;38277;51.972;4.624;2023-04-10T13:09:29;101300.0;;;15.7;59.5
52343;BME280;38277;51.972;4.624;2023-04-10T13:12:46;101300.0;;;15.6;60.5
52343;BME280;38277;51.972;4.624;2023-04-10T13:19:27;101290.0;;;15.4;62.5
52343;BME280;38277;51.972;4.624;2023-04-10T13:25:05;101270.0;;;15.3;64.5
52343;BME280;38277;51.972;4.624;2023-04-10T13:31:38;101260.0;;;15.3;65.5
52343;BME280;38277;51.972;4.624;2023-04-10T13:34:59;101270.0;;;15.3;66.0
52343;BME280;38277;51.972;4.624;2023-04-10T13:39:52;101270.0;;;15.2;66.0
52343;BME280;38277;51.972;4.624;2023-04-10T13:47:51;101270.0;;;15.0;67.5
52343;BME280;38277;51.972;4.624;2023-04-10T13:52:48;101270.0;;;14.8;68.5
52343;BME280;38277;51.972;4.624;2023-04-10T13:57:43;101270.0;;;14.7;69.5
52343;BME280;38277;51.972;4.624;2023-04-10T14:02:40;101270.0;;;14.4;70.0
52343;BME280;38277;51.972;4.624;2023-04-10T14:10:25;101250.0;;;14.0;73.5
52343;BME280;38277;51.972;4.624;2023-04-10T14:16:59;101240.0;;;13.9;75.0
52343;BME280;38277;51.972;4.624;2023-04-10T14:20:17;101220.0;;;13.8;76.5
52343;BME280;38277;51.972;4.624;2023-04-10T14:23:51;101220.0;;;13.8;77.5
52343;BME280;38277;51.972;4.624;2023-04-10T14:28:16;101210.0;;;13.7;79.0
52343;BME280;38277;51.972;4.624;2023-04-10T14:32:39;101200.0;;;13.6;79.5
52343;BME280;38277;51.972;4.624;2023-04-10T14:37:06;101200.0;;;13.6;80.0
52343;BME280;38277;51.972;4.624;2023-04-10T14:41:51;101180.0;;;13.6;80.0
52343;BME280;38277;51.972;4.624;2023-04-10T14:46:00;101200.0;;;13.5;81.0
52343;BME280;38277;51.972;4.624;2023-04-10T14:50:41;101180.0;;;13.4;81.5
52343;BME280;38277;51.972;4.624;2023-04-10T14:55:10;101180.0;;;13.4;82.0
52343;BME280;38277;51.972;4.624;2023-04-10T14:59:50;101200.0;;;13.3;83.0
52343;BME280;38277;51.972;4.624;2023-04-10T15:03:59;101200.0;;;13.3;83.5
52343;BME280;38277;51.972;4.624;2023-04-10T15:08:54;101200.0;;;13.2;84.5
52343;BME280;38277;51.972;4.624;2023-04-10T15:13:19;101200.0;;;13.1;85.0
52343;BME280;38277;51.972;4.624;2023-04-10T15:17:32;101210.0;;;13.0;86.0
52343;BME280;38277;51.972;4.624;2023-04-10T15:22:00;101200.0;;;12.9;87.0
52343;BME280;38277;51.972;4.624;2023-04-10T15:31:08;101180.0;;;12.9;89.0
52343;BME280;38277;51.972;4.624;2023-04-10T15:35:29;101190.0;;;12.9;89.5
52343;BME280;38277;51.972;4.624;2023-04-10T15:40:04;101170.0;;;12.9;90.0
52343;BME280;38277;51.972;4.624;2023-04-10T15:44:30;101170.0;;;12.9;90.5
52343;BME280;38277;51.972;4.624;2023-04-10T15:49:13;101170.0;;;12.9;91.0
52343;BME280;38277;51.972;4.624;2023-04-10T15:53:47;101160.0;;;12.9;91.5
52343;BME280;38277;51.972;4.624;2023-04-10T16:02:40;101150.0;;;12.8;91.5
52343;BME280;38277;51.972;4.624;2023-04-10T16:07:02;101160.0;;;12.8;91.5
52343;BME280;38277;51.972;4.624;2023-04-10T16:11:34;101130.0;;;12.8;91.5
52343;BME280;38277;51.972;4.624;2023-04-10T16:16:12;101110.0;;;12.8;91.5
52343;BME280;38277;51.972;4.624;2023-04-10T16:25:17;101100.0;;;12.8;92.5
52343;BME280;38277;51.972;4.624;2023-04-10T16:29:29;101110.0;;;12.8;92.5
52343;BME280;38277;51.972;4.624;2023-04-10T16:38:53;101110.0;;;12.8;92.0
52343;BME280;38277;51.972;4.624;2023-04-10T16:43:24;101110.0;;;12.8;92.5
52343;BME280;38277;51.972;4.624;2023-04-10T16:48:25;101110.0;;;12.8;92.0
52343;BME280;38277;51.972;4.624;2023-04-10T16:53:17;101110.0;;;12.8;92.0
52343;BME280;38277;51.972;4.624;2023-04-10T17:01:12;101110.0;;;12.9;91.0
52343;BME280;38277;51.972;4.624;2023-04-10T17:06:08;101090.0;;;12.9;90.5
52343;BME280;38277;51.972;4.624;2023-04-10T17:11:05;101060.0;;;12.9;90.5
52343;BME280;38277;51.972;4.624;2023-04-10T17:16:01;101050.0;;;12.9;90.0
52343;BME280;38277;51.972;4.624;2023-04-10T17:25:30;101050.0;;;12.8;88.0
52343;BME280;38277;51.972;4.624;2023-04-10T17:28:48;101030.0;;;12.8;86.5
52343;BME280;38277;51.972;4.624;2023-04-10T17:33:44;101040.0;;;12.8;86.5
52343;BME280;38277;51.972;4.624;2023-04-10T17:41:30;101030.0;;;12.8;85.0
52343;BME280;38277;51.972;4.624;2023-04-10T17:46:26;101040.0;;;12.7;84.5
52343;BME280;38277;51.972;4.624;2023-04-10T17:51:22;101040.0;;;12.7;85.0
52343;BME280;38277;51.972;4.624;2023-04-10T17:56:19;101030.0;;;12.7;85.0
52343;BME280;38277;51.972;4.624;2023-04-10T18:04:19;101030.0;;;12.7;84.5
52343;BME280;38277;51.972;4.624;2023-04-10T18:10:54;101040.0;;;12.7;84.0
52343;BME280;38277;51.972;4.624;2023-04-10T18:14:12;101030.0;;;12.7;83.5
52343;BME280;38277;51.972;4.624;2023-04-10T18:22:02;101030.0;;;12.6;83.0
52343;BME280;38277;51.972;4.624;2023-04-10T18:26:59;101050.0;;;12.6;82.0
52343;BME280;38277;51.972;4.624;2023-04-10T18:33:34;101030.0;;;12.6;82.0
52343;BME280;38277;51.972;4.624;2023-04-10T18:36:50;101000.0;;;12.5;81.5
52343;BME280;38277;51.972;4.624;2023-04-10T18:41:47;101010.0;;;12.5;81.5
52343;BME280;38277;51.972;4.624;2023-04-10T18:50:45;101010.0;;;12.4;82.0
52343;BME280;38277;51.972;4.624;2023-04-10T18:55:46;101010.0;;;12.3;82.5
52343;BME280;38277;51.972;4.624;2023-04-10T18:58:59;101040.0;;;12.3;83.0
52343;BME280;38277;51.972;4.624;2023-04-10T19:03:55;101050.0;;;12.3;83.0
52343;BME280;38277;51.972;4.624;2023-04-10T19:11:29;101030.0;;;12.3;83.5
52343;BME280;38277;51.972;4.624;2023-04-10T19:16:25;101020.0;;;12.3;83.5
52343;BME280;38277;51.972;4.624;2023-04-10T19:21:21;101000.0;;;12.2;83.0
52343;BME280;38277;51.972;4.624;2023-04-10T19:26:18;101010.0;;;12.2;83.0
52343;BME280;38277;51.972;4.624;2023-04-10T19:32:52;101010.0;;;12.1;83.0
52343;BME280;38277;51.972;4.624;2023-04-10T19:40:29;101000.0;;;12.1;83.0
52343;BME280;38277;51.972;4.624;2023-04-10T19:43:46;100990.0;;;12.1;83.0
52343;BME280;38277;51.972;4.624;2023-04-10T19:48:42;101010.0;;;12.1;83.5
52343;BME280;38277;51.972;4.624;2023-04-10T19:56:30;101010.0;;;12.1;83.5
52343;BME280;38277;51.972;4.624;2023-04-10T20:01:26;101010.0;;;12.1;83.0
52343;BME280;38277;51.972;4.624;2023-04-10T20:06:22;101000.0;;;12.1;83.0
52343;BME280;38277;51.972;4.624;2023-04-10T20:11:18;100990.0;;;12.1;82.5
52343;BME280;38277;51.972;4.624;2023-04-10T20:16:15;100980.0;;;12.1;82.5
52343;BME280;38277;51.972;4.624;2023-04-10T20:25:19;100990.0;;;12.1;82.5
52343;BME280;38277;51.972;4.624;2023-04-10T20:28:36;100990.0;;;12.1;82.0
52343;BME280;38277;51.972;4.624;2023-04-10T20:33:33;100980.0;;;12.0;82.5
52343;BME280;38277;51.972;4.624;2023-04-10T20:38:28;100970.0;;;12.0;82.5
52343;BME280;38277;51.972;4.624;2023-04-10T20:46:16;100960.0;;;11.9;82.5
52343;BME280;38277;51.972;4.624;2023-04-10T20:51:12;100960.0;;;11.9;82.5
52343;BME280;38277;51.972;4.624;2023-04-10T20:56:08;100960.0;;;11.9;82.5
52343;BME280;38277;51.972;4.624;2023-04-10T21:01:06;100960.0;;;11.8;82.5
52343;BME280;38277;51.972;4.624;2023-04-10T21:10:22;100960.0;;;11.8;81.5
52343;BME280;38277;51.972;4.624;2023-04-10T21:13:39;100950.0;;;11.7;81.5
52343;BME280;38277;51.972;4.624;2023-04-10T21:18:35;100950.0;;;11.8;81.5
52343;BME280;38277;51.972;4.624;2023-04-10T21:23:31;100950.0;;;11.8;81.5
52343;BME280;38277;51.972;4.624;2023-04-10T21:32:53;100970.0;;;11.9;80.5
52343;BME280;38277;51.972;4.624;2023-04-10T21:36:10;100990.0;;;11.9;80.5
52343;BME280;38277;51.972;4.624;2023-04-10T21:41:06;101070.0;;;12.0;75.5
52343;BME280;38277;51.972;4.624;2023-04-10T21:47:41;101060.0;;;11.2;72.0
52343;BME280;38277;51.972;4.624;2023-04-10T21:56:50;101020.0;;;9.9;76.5
52343;BME280;38277;51.972;4.624;2023-04-10T21:58:29;101010.0;;;9.7;77.0
52343;BME280;38277;51.972;4.624;2023-04-10T22:03:25;100990.0;;;9.5;77.0
52343;BME280;38277;51.972;4.624;2023-04-10T22:08:21;101000.0;;;9.4;78.0
52343;BME280;38277;51.972;4.624;2023-04-10T22:16:15;101000.0;;;9.3;78.0
52343;BME280;38277;51.972;4.624;2023-04-10T22:21:10;101010.0;;;9.3;78.5
52343;BME280;38277;51.972;4.624;2023-04-10T22:26:06;101000.0;;;9.3;79.0
52343;BME280;38277;51.972;4.624;2023-04-10T22:31:03;101010.0;;;9.3;79.5
52343;BME280;38277;51.972;4.624;2023-04-10T22:40:19;101000.0;;;9.5;81.0
52343;BME280;38277;51.972;4.624;2023-04-10T22:45:15;101000.0;;;9.6;82.5
52343;BME280;38277;51.972;4.624;2023-04-10T22:48:32;101000.0;;;9.7;84.0
52343;BME280;38277;51.972;4.624;2023-04-10T22:55:07;101010.0;;;9.8;84.0
52343;BME280;38277;51.972;4.624;2023-04-10T23:04:20;101010.0;;;9.9;83.5
52343;BME280;38277;51.972;4.624;2023-04-10T23:05:59;101010.0;;;10.0;83.5
52343;BME280;38277;51.972;4.624;2023-04-10T23:10:56;101010.0;;;10.1;83.5
52343;BME280;38277;51.972;4.624;2023-04-10T23:15:53;101000.0;;;10.1;84.0
52343;BME280;38277;51.972;4.624;2023-04-10T23:22:27;101000.0;;;10.2;85.0
52343;BME280;38277;51.972;4.624;2023-04-10T23:27:57;101020.0;;;10.3;86.5
52343;BME280;38277;51.972;4.624;2023-04-10T23:32:53;101020.0;;;10.3;86.5
52343;BME280;38277;51.972;4.624;2023-04-10T23:37:49;101010.0;;;10.4;86.5
52343;BME280;38277;51.972;4.624;2023-04-10T23:42:46;101010.0;;;10.4;86.0
52343;BME280;38277;51.972;4.624;2023-04-10T23:47:42;101010.0;;;10.4;85.5
52343;BME280;38277;51.972;4.624;2023-04-10T23:55:15;101010.0;;;10.3;85.0
